Time;durP1;ratioP1;P1;durP2;ratioP2;P2;SDS_P1;SDS_P2;PMS_P1;PMS_P2;Temp;Humidity;BMP_temperature;BMP_pressure;BME280_temperature;BME280_humidity;BME280_pressure;Samples;Min_cycle;Max_cycle;Signal;HPM_P1;HPM_P2
2022/04/03 00:00:25;;;;;;;21.20;14.40;;;;;;;4.30;79.34;99734.14;106992;1249;68527;-72
2022/04/03 00:03:08;;;;;;;25.80;16.60;;;;;;;4.24;79.99;99733.61;107119;1249;72742;-72
2022/04/03 00:05:42;;;;;;;28.60;16.40;;;;;;;4.18;80.11;99732.83;107174;1251;61800;-69
2022/04/03 00:08:13;;;;;;;25.60;14.80;;;;;;;4.08;81.16;99732.86;107329;1249;59374;-71
2022/04/03 00:10:45;;;;;;;24.10;16.30;;;;;;;4.03;81.26;99741.42;107468;1251;74542;-71
2022/04/03 00:13:14;;;;;;;24.90;16.30;;;;;;;3.90;82.05;99741.52;107391;1250;70754;-71
2022/04/03 00:15:43;;;;;;;28.20;18.60;;;;;;;3.79;82.41;99737.25;107220;1251;68757;-70
2022/04/03 00:18:12;;;;;;;26.10;16.70;;;;;;;3.65;83.40;99729.30;107141;1249;72339;-73
2022/04/03 00:20:43;;;;;;;33.10;19.30;;;;;;;3.55;84.05;99733.13;107147;1249;61402;-72
2022/04/03 00:23:12;;;;;;;28.30;17.60;;;;;;;3.39;84.94;99730.79;107215;1249;61339;-71
2022/04/03 00:25:41;;;;;;;30.00;17.80;;;;;;;3.35;85.12;99723.31;107570;1248;75267;-73
2022/04/03 00:28:10;;;;;;;28.10;18.60;;;;;;;3.29;85.64;99727.25;107724;1249;70246;-73
2022/04/03 00:30:41;;;;;;;28.00;18.50;;;;;;;3.21;85.84;99723.75;107636;1250;67903;-72
2022/04/03 00:33:13;;;;;;;25.40;17.40;;;;;;;3.16;85.77;99716.98;107629;1249;71383;-75
2022/04/03 00:35:43;;;;;;;31.20;18.80;;;;;;;3.04;87.55;99709.95;107467;1250;60814;-71
2022/04/03 00:38:12;;;;;;;30.40;18.20;;;;;;;3.06;87.36;99707.60;107390;1251;59732;-71
2022/04/03 00:40:44;;;;;;;27.70;17.90;;;;;;;3.08;86.72;99707.79;107158;1251;75415;-70
2022/04/03 00:43:14;;;;;;;27.10;16.30;;;;;;;3.04;86.53;99709.94;107535;1250;71513;-70
2022/04/03 00:45:48;;;;;;;27.10;17.90;;;;;;;3.00;86.89;99716.55;107714;1251;69956;-71
2022/04/03 00:48:17;;;;;;;22.40;14.50;;;;;;;2.98;86.65;99708.07;107659;1251;73583;-71
2022/04/03 00:50:47;;;;;;;23.90;15.70;;;;;;;2.94;86.77;99701.71;107401;1251;60413;-74
2022/04/03 00:53:16;;;;;;;25.20;16.60;;;;;;;2.89;86.82;99701.85;107269;1251;59802;-71
2022/04/03 00:55:46;;;;;;;27.40;16.60;;;;;;;2.86;86.80;99706.96;107236;1251;71751;-71
2022/04/03 00:58:15;;;;;;;29.20;18.70;;;;;;;2.82;86.73;99702.58;107168;1251;72308;-72
2022/04/03 01:00:45;;;;;;;28.40;18.50;;;;;;;2.81;87.18;99707.11;107224;1250;69255;-73
2022/04/03 01:03:14;;;;;;;28.50;19.10;;;;;;;2.83;87.09;99705.77;106943;1251;72686;-71
2022/04/03 01:05:43;;;;;;;26.30;17.90;;;;;;;2.80;86.87;99699.59;106879;1251;59774;-71
2022/04/03 01:08:12;;;;;;;24.50;15.40;;;;;;;2.82;87.11;99701.20;107262;1250;60418;-72
2022/04/03 01:10:42;;;;;;;29.50;16.90;;;;;;;2.76;86.89;99696.23;107063;1251;72602;-72
2022/04/03 01:13:11;;;;;;;27.90;16.30;;;;;;;2.82;86.96;99705.98;107295;1254;70788;-74
2022/04/03 01:15:40;;;;;;;27.40;17.20;;;;;;;2.80;86.89;99706.27;107501;1251;68092;-71
2022/04/03 01:18:09;;;;;;;26.70;17.10;;;;;;;2.83;86.81;99710.95;107486;1251;73000;-71
2022/04/03 01:20:38;;;;;;;26.90;16.70;;;;;;;2.79;86.71;99716.88;107214;1251;60196;-74
2022/04/03 01:23:07;;;;;;;31.30;18.20;;;;;;;2.81;86.98;99717.26;107159;1251;61372;-72
2022/04/03 01:25:36;;;;;;;26.80;16.90;;;;;;;2.81;87.06;99717.42;106901;1254;72894;-72
2022/04/03 01:28:07;;;;;;;30.20;17.20;;;;;;;2.84;87.10;99719.00;107180;1251;70653;-71
2022/04/03 01:30:36;;;;;;;28.40;18.00;;;;;;;2.83;86.98;99720.59;107146;1251;69789;-72
2022/04/03 01:33:05;;;;;;;27.20;17.40;;;;;;;2.78;86.91;99714.48;107245;1251;73188;-68
2022/04/03 01:35:34;;;;;;;30.90;18.30;;;;;;;2.74;86.79;99713.71;107063;1251;60927;-68
2022/04/03 01:38:03;;;;;;;29.30;18.50;;;;;;;2.73;87.06;99708.96;107371;1251;60132;-74
2022/04/03 01:40:35;;;;;;;28.40;17.30;;;;;;;2.75;86.95;99713.64;107656;1251;71747;-72
2022/04/03 01:43:06;;;;;;;24.40;15.60;;;;;;;2.77;86.92;99717.83;107284;1251;71086;-74
2022/04/03 01:45:37;;;;;;;22.30;13.80;;;;;;;2.80;86.76;99720.08;107207;1251;69551;-73
2022/04/03 01:48:08;;;;;;;23.00;15.00;;;;;;;2.62;86.11;99716.61;107097;1250;71323;-72
2022/04/03 01:50:37;;;;;;;22.50;13.20;;;;;;;2.59;86.16;99719.50;107186;1249;60589;-71
2022/04/03 01:53:06;;;;;;;25.10;15.30;;;;;;;2.55;86.25;99714.95;106841;1251;60117;-71
2022/04/03 01:55:35;;;;;;;23.30;15.50;;;;;;;2.54;86.37;99707.08;106802;1251;71351;-71
2022/04/03 01:58:08;;;;;;;26.90;17.10;;;;;;;2.56;86.78;99698.40;109420;1250;69914;-73
2022/04/03 02:00:38;;;;;;;25.80;15.90;;;;;;;2.52;86.82;99697.55;109460;1249;70908;-72
2022/04/03 02:03:07;;;;;;;27.10;17.40;;;;;;;2.51;87.22;99689.90;108031;1249;72560;-72
2022/04/03 02:05:36;;;;;;;27.20;17.00;;;;;;;2.55;87.41;99689.48;107002;1249;59738;-71
2022/04/03 02:08:06;;;;;;;25.50;15.30;;;;;;;2.55;86.66;99692.04;107380;1249;57954;-71
2022/04/03 02:10:35;;;;;;;26.50;16.00;;;;;;;2.60;86.83;99701.26;107480;1250;74333;-74
2022/04/03 02:13:04;;;;;;;26.80;15.50;;;;;;;2.62;86.88;99710.23;107408;1249;72867;-73
2022/04/03 02:15:33;;;;;;;25.80;15.90;;;;;;;2.66;87.18;99713.98;107440;1249;70270;-70
2022/04/03 02:18:02;;;;;;;22.60;13.70;;;;;;;2.70;87.13;99721.98;107327;1249;72447;-72
2022/04/03 02:20:31;;;;;;;26.30;15.20;;;;;;;2.65;86.56;99724.66;107313;1249;60205;-74
2022/04/03 02:23:00;;;;;;;27.30;17.40;;;;;;;2.63;86.77;99716.70;107316;1250;57922;-71
2022/04/03 02:25:30;;;;;;;25.20;15.10;;;;;;;2.65;86.99;99712.62;107228;1251;72808;-72
2022/04/03 02:27:59;;;;;;;28.20;17.00;;;;;;;2.74;87.34;99716.30;107280;1249;71381;-71
2022/04/03 02:30:28;;;;;;;24.40;16.10;;;;;;;2.76;87.11;99715.84;107822;1249;68231;-71
2022/04/03 02:32:57;;;;;;;24.40;16.10;;;;;;;2.75;87.16;99722.25;107407;1249;71917;-69
2022/04/03 02:35:26;;;;;;;24.40;14.80;;;;;;;2.73;86.80;99727.88;107084;1250;60075;-71
2022/04/03 02:37:55;;;;;;;25.50;15.30;;;;;;;2.70;86.08;99732.49;107175;1249;59035;-74
2022/04/03 02:40:24;;;;;;;25.10;16.10;;;;;;;2.65;86.03;99724.32;107130;1249;72269;-72
2022/04/03 02:42:54;;;;;;;26.60;17.00;;;;;;;2.64;86.26;99723.66;107236;1249;70731;-71
2022/04/03 02:45:23;;;;;;;26.80;17.20;;;;;;;2.59;86.09;99722.60;107167;1249;71501;-72
2022/04/03 02:47:54;;;;;;;27.20;16.90;;;;;;;2.61;86.33;99724.20;107010;1252;74368;-71
2022/04/03 02:50:26;;;;;;;26.60;16.20;;;;;;;2.62;86.08;99725.54;107114;1249;61285;-71
2022/04/03 02:52:55;;;;;;;29.60;14.60;;;;;;;2.66;86.31;99730.83;107162;1250;61367;-72
2022/04/03 02:55:25;;;;;;;28.40;16.30;;;;;;;2.71;86.49;99737.97;107309;1249;73456;-74
2022/04/03 02:57:55;;;;;;;27.00;17.00;;;;;;;2.78;86.86;99736.19;107269;1250;69132;-72
2022/04/03 03:00:24;;;;;;;28.60;17.80;;;;;;;2.73;86.68;99736.80;106619;1250;652864;-70
2022/04/03 03:02:53;;;;;;;27.10;17.20;;;;;;;2.74;86.81;99726.07;107045;1251;72338;-72
2022/04/03 03:05:22;;;;;;;27.90;17.10;;;;;;;2.79;87.15;99719.05;107073;1251;61987;-72
2022/04/03 03:07:51;;;;;;;29.30;17.60;;;;;;;2.77;86.80;99716.95;107221;1250;60517;-72
2022/04/03 03:10:22;;;;;;;30.50;17.60;;;;;;;2.86;87.36;99719.35;107108;1251;73914;-75
2022/04/03 03:12:51;;;;;;;28.40;18.10;;;;;;;2.81;87.08;99721.35;107280;1251;70547;-71
2022/04/03 03:15:20;;;;;;;28.20;16.20;;;;;;;2.86;87.02;99719.38;107379;1251;71383;-74
2022/04/03 03:17:49;;;;;;;28.90;16.90;;;;;;;2.87;87.20;99725.84;107460;1250;74440;-72
2022/04/03 03:20:22;;;;;;;29.00;18.60;;;;;;;2.88;87.02;99720.79;107425;1250;62066;-73
2022/04/03 03:22:51;;;;;;;29.90;17.40;;;;;;;2.90;87.44;99719.81;107355;1251;60587;-73
2022/04/03 03:25:20;;;;;;;30.50;17.70;;;;;;;2.85;87.12;99724.77;107386;1251;75430;-72
2022/04/03 03:27:49;;;;;;;30.80;17.60;;;;;;;2.87;86.72;99731.70;107545;1250;73031;-72
2022/04/03 03:30:19;;;;;;;27.90;16.70;;;;;;;2.89;86.88;99730.54;107427;1250;70899;-71
2022/04/03 03:32:48;;;;;;;28.40;15.70;;;;;;;2.87;87.03;99729.98;107127;1251;74765;-74
2022/04/03 03:35:16;;;;;;;29.30;18.50;;;;;;;2.90;87.26;99732.40;107347;1250;63189;-73
2022/04/03 03:37:45;;;;;;;28.50;17.50;;;;;;;2.92;87.37;99729.69;107327;1250;61363;-72
2022/04/03 03:40:15;;;;;;;31.20;18.40;;;;;;;2.91;87.05;99727.84;107328;1251;75172;-71
2022/04/03 03:42:44;;;;;;;28.00;16.40;;;;;;;2.88;87.11;99725.83;107527;1251;73030;-72
2022/04/03 03:45:15;;;;;;;34.50;19.30;;;;;;;2.80;86.87;99722.45;107497;1251;70075;-74
2022/04/03 03:47:48;;;;;;;30.10;18.60;;;;;;;2.82;87.15;99725.14;107367;1251;73224;-73
2022/04/03 03:50:17;;;;;;;27.10;17.00;;;;;;;2.84;87.44;99732.41;107226;1251;62532;-71
2022/04/03 03:52:46;;;;;;;27.30;18.40;;;;;;;2.80;86.58;99736.77;107126;1251;60074;-74
2022/04/03 03:55:15;;;;;;;26.80;17.30;;;;;;;2.62;86.29;99732.40;107179;1251;71795;-73
2022/04/03 03:57:46;;;;;;;31.20;17.80;;;;;;;2.63;86.59;99722.75;107266;1251;71359;-72
2022/04/03 04:00:15;;;;;;;30.00;18.00;;;;;;;2.63;86.24;99723.06;107283;1251;71628;-73
2022/04/03 04:02:44;;;;;;;27.70;15.40;;;;;;;2.56;86.43;99722.23;107125;1251;71685;-73
2022/04/03 04:05:14;;;;;;;28.60;18.40;;;;;;;2.51;86.69;99724.05;107279;1251;61311;-74
2022/04/03 04:07:47;;;;;;;27.00;17.30;;;;;;;2.39;86.51;99728.34;107182;1251;60150;-70
2022/04/03 04:10:16;;;;;;;29.00;17.80;;;;;;;2.42;86.71;99735.23;107507;1251;73315;-72
2022/04/03 04:12:47;;;;;;;27.00;16.40;;;;;;;2.37;86.91;99742.16;107493;1251;72250;-72
2022/04/03 04:15:16;;;;;;;28.50;17.30;;;;;;;2.46;87.17;99748.61;107435;1251;69945;-73
2022/04/03 04:17:48;;;;;;;29.90;17.70;;;;;;;2.48;87.22;99756.42;107200;1251;72385;-75
2022/04/03 04:20:18;;;;;;;27.80;15.40;;;;;;;2.52;87.20;99756.49;107151;1251;59864;-72
2022/04/03 04:22:53;;;;;;;26.00;16.90;;;;;;;2.51;86.88;99751.05;107360;1251;60696;-75
2022/04/03 04:25:22;;;;;;;27.20;17.90;;;;;;;2.53;87.04;99749.39;107413;1251;71965;-72
2022/04/03 04:27:51;;;;;;;29.30;16.70;;;;;;;2.51;87.10;99752.95;107537;1251;72099;-73
2022/04/03 04:30:20;;;;;;;28.00;17.20;;;;;;;2.42;86.59;99752.40;107431;1251;68581;-71
2022/04/03 04:32:49;;;;;;;24.80;16.10;;;;;;;2.52;87.23;99762.36;107598;1249;73151;-74
2022/04/03 04:35:19;;;;;;;19.50;10.20;;;;;;;2.58;87.33;99767.86;107647;1250;63134;-73
2022/04/03 04:37:48;;;;;;;28.90;18.50;;;;;;;2.60;86.93;99763.98;107467;1251;62937;-73
2022/04/03 04:40:17;;;;;;;27.70;17.00;;;;;;;2.60;87.40;99761.08;107053;1251;76135;-72
2022/04/03 04:42:47;;;;;;;27.00;17.00;;;;;;;2.54;86.87;99755.92;107036;1251;72365;-71
2022/04/03 04:45:17;;;;;;;22.50;13.20;;;;;;;2.56;87.12;99751.33;107135;1250;68405;-72
2022/04/03 04:47:48;;;;;;;28.70;17.40;;;;;;;2.54;86.82;99748.65;106991;1251;71423;-73
2022/04/03 04:50:20;;;;;;;22.90;16.50;;;;;;;2.53;86.77;99752.48;106993;1251;60226;-73
2022/04/03 04:52:49;;;;;;;23.40;15.00;;;;;;;2.50;86.04;99767.14;107176;1251;59662;-73
2022/04/03 04:55:19;;;;;;;18.70;12.40;;;;;;;2.47;86.14;99780.16;107169;1251;72674;-72
2022/04/03 04:57:54;;;;;;;22.30;14.40;;;;;;;2.41;85.77;99786.52;107175;1251;72444;-73
2022/04/03 05:00:25;;;;;;;21.80;14.60;;;;;;;2.41;85.91;99787.67;107332;1250;70356;-72
2022/04/03 05:02:55;;;;;;;22.70;14.30;;;;;;;2.37;85.98;99796.30;107338;1250;72499;-72
2022/04/03 05:05:24;;;;;;;19.60;10.60;;;;;;;2.35;85.90;99798.34;107304;1250;61393;-74
2022/04/03 05:07:59;;;;;;;23.60;15.00;;;;;;;2.37;85.65;99804.73;107224;1250;59478;-74
2022/04/03 05:10:30;;;;;;;19.80;13.50;;;;;;;2.27;85.47;99805.47;107188;1250;73672;-74
2022/04/03 05:13:01;;;;;;;23.90;14.50;;;;;;;2.30;85.94;99814.08;107606;1251;70534;-73
2022/04/03 05:15:30;;;;;;;25.70;15.60;;;;;;;2.34;86.35;99816.25;107421;1251;69894;-74
2022/04/03 05:17:59;;;;;;;27.30;16.40;;;;;;;2.34;86.46;99815.05;107277;1251;73638;-74
2022/04/03 05:20:29;;;;;;;27.90;15.80;;;;;;;2.32;86.59;99816.67;107211;1250;61479;-73
2022/04/03 05:22:58;;;;;;;28.60;17.20;;;;;;;2.37;87.24;99817.13;107188;1250;61727;-72
2022/04/03 05:25:27;;;;;;;25.30;16.60;;;;;;;2.43;87.39;99815.07;106989;1251;75457;-72
2022/04/03 05:27:56;;;;;;;29.70;17.40;;;;;;;2.46;87.29;99816.48;107016;1250;71899;-72
2022/04/03 05:30:25;;;;;;;25.30;15.30;;;;;;;2.48;87.15;99819.61;107050;1251;70291;-73
2022/04/03 05:32:54;;;;;;;26.70;16.60;;;;;;;2.41;85.85;99823.80;107034;1251;73721;-75
2022/04/03 05:35:23;;;;;;;28.40;15.90;;;;;;;2.39;86.35;99821.69;107154;1251;61055;-75
2022/04/03 05:37:52;;;;;;;22.20;12.90;;;;;;;2.47;86.56;99833.80;107330;1250;61807;-74
2022/04/03 05:40:21;;;;;;;27.50;16.10;;;;;;;2.47;85.84;99833.45;107135;1251;75313;-73
2022/04/03 05:42:50;;;;;;;24.90;16.20;;;;;;;2.47;85.77;99831.73;106974;1251;72015;-73
2022/04/03 05:45:19;;;;;;;27.70;16.80;;;;;;;2.44;85.70;99826.20;106936;1251;69121;-73
2022/04/03 05:47:48;;;;;;;24.60;13.70;;;;;;;2.45;85.84;99827.36;106961;1251;73029;-71
2022/04/03 05:50:19;;;;;;;24.70;15.80;;;;;;;2.44;85.68;99825.86;107044;1249;61460;-73
2022/04/03 05:52:52;;;;;;;25.20;16.00;;;;;;;2.43;85.96;99827.11;106894;1251;61776;-73
2022/04/03 05:55:22;;;;;;;;;;;;;;;2.43;86.48;99831.21;107126;1249;74979;-73
2022/04/03 05:57:53;;;;;;;21.50;13.00;;;;;;;2.48;86.31;99828.73;107156;1249;72936;-73
2022/04/03 06:00:24;;;;;;;23.80;15.30;;;;;;;2.46;86.01;99831.95;106978;1251;72357;-74
2022/04/03 06:02:57;;;;;;;21.90;13.00;;;;;;;2.41;86.34;99832.71;107159;1249;73839;-74
2022/04/03 06:05:29;;;;;;;22.70;15.20;;;;;;;2.40;86.50;99831.90;107232;1249;63856;-72
2022/04/03 06:08:02;;;;;;;23.30;15.10;;;;;;;2.49;86.91;99830.40;107426;1249;60105;-74
2022/04/03 06:10:34;;;;;;;28.00;15.60;;;;;;;2.58;86.84;99825.98;107486;1251;72565;-75
2022/04/03 06:13:05;;;;;;;22.20;15.30;;;;;;;2.64;87.21;99820.65;107227;1249;73303;-77
2022/04/03 06:15:46;;;;;;;20.80;13.80;;;;;;;2.71;86.89;99819.08;107208;1250;69523;-74
2022/04/03 06:18:18;;;;;;;22.90;14.80;;;;;;;2.72;86.31;99815.23;107232;1250;74325;-73
2022/04/03 06:20:48;;;;;;;24.40;15.30;;;;;;;2.80;85.80;99813.95;107101;1251;61106;-74
2022/04/03 06:23:20;;;;;;;19.40;14.30;;;;;;;2.76;85.46;99819.14;107117;1249;61123;-76
2022/04/03 06:25:55;;;;;;;25.00;15.00;;;;;;;2.76;85.73;99823.99;107201;1250;74244;-74
2022/04/03 06:28:27;;;;;;;20.30;13.30;;;;;;;2.73;85.44;99835.47;106989;1251;73619;-76
2022/04/03 06:30:56;;;;;;;19.50;12.70;;;;;;;2.79;84.89;99845.98;107214;1250;71213;-73
2022/04/03 06:33:25;;;;;;;19.80;13.90;;;;;;;2.70;84.47;99845.11;107020;1250;74160;-74
2022/04/03 06:35:55;;;;;;;18.90;13.30;;;;;;;2.69;84.95;99845.67;107204;1249;61715;-73
2022/04/03 06:38:23;;;;;;;18.60;12.60;;;;;;;2.64;84.61;99852.09;107247;1249;61990;-75
2022/04/03 06:40:55;;;;;;;20.20;13.10;;;;;;;2.65;84.54;99856.06;107241;1249;73570;-73
2022/04/03 06:43:27;;;;;;;23.40;14.60;;;;;;;2.65;84.92;99861.52;107180;1249;70598;-73
2022/04/03 06:45:57;;;;;;;23.00;14.00;;;;;;;2.60;84.76;99861.11;107121;1250;68336;-73
2022/04/03 06:48:28;;;;;;;22.70;13.80;;;;;;;2.67;84.88;99857.66;107056;1250;72353;-72
2022/04/03 06:50:58;;;;;;;20.80;12.60;;;;;;;2.68;85.37;99860.00;107368;1250;62204;-75
2022/04/03 06:53:27;;;;;;;21.50;14.40;;;;;;;2.72;85.60;99860.82;107463;1250;61032;-75
2022/04/03 06:55:55;;;;;;;22.00;15.20;;;;;;;2.74;85.43;99856.76;107308;1251;73570;-72
2022/04/03 06:58:24;;;;;;;17.90;11.70;;;;;;;2.78;85.50;99858.09;107251;1250;69932;-76
2022/04/03 07:01:00;;;;;;;18.90;12.30;;;;;;;2.92;85.14;99852.13;107150;1251;68032;-76
2022/04/03 07:03:47;;;;;;;18.40;13.30;;;;;;;2.97;84.46;99851.75;106972;1251;70258;-73
2022/04/03 07:06:16;;;;;;;17.90;11.70;;;;;;;3.04;83.60;99854.42;107250;1251;60492;-77
2022/04/03 07:08:48;;;;;;;19.60;13.50;;;;;;;3.20;82.87;99858.89;107062;1251;61802;-74
2022/04/03 07:11:17;;;;;;;18.00;12.70;;;;;;;3.19;82.91;99860.82;107059;1251;73436;-74
2022/04/03 07:13:46;;;;;;;19.40;12.90;;;;;;;3.23;82.53;99866.31;107022;1250;70768;-73
2022/04/03 07:16:16;;;;;;;17.90;13.10;;;;;;;3.19;82.46;99866.84;107096;1251;68459;-75
2022/04/03 07:18:45;;;;;;;18.70;13.20;;;;;;;3.23;82.39;99866.83;107206;1251;73996;-72
2022/04/03 07:21:13;;;;;;;20.60;14.30;;;;;;;3.28;82.92;99871.04;107028;1250;62116;-72
2022/04/03 07:23:42;;;;;;;19.20;12.80;;;;;;;3.26;83.03;99874.54;107031;1250;61670;-71
2022/04/03 07:26:12;;;;;;;21.90;14.70;;;;;;;3.29;82.62;99878.19;107044;1251;74702;-71
2022/04/03 07:28:41;;;;;;;18.70;12.30;;;;;;;3.22;82.52;99884.75;107224;1250;73012;-74
2022/04/03 07:31:10;;;;;;;21.50;13.80;;;;;;;3.14;82.47;99887.58;107218;1251;68714;-74
2022/04/03 07:33:39;;;;;;;19.00;13.00;;;;;;;3.13;82.78;99888.51;106885;1251;74707;-72
2022/04/03 07:36:08;;;;;;;16.90;11.40;;;;;;;3.11;82.28;99894.80;107197;1249;60995;-74
2022/04/03 07:38:37;;;;;;;16.30;11.70;;;;;;;3.10;82.04;99897.99;107350;1250;62050;-73
2022/04/03 07:41:05;;;;;;;17.10;11.10;;;;;;;3.08;82.39;99902.37;107563;1251;75891;-74
2022/04/03 07:43:35;;;;;;;17.10;11.20;;;;;;;3.03;82.25;99906.13;107248;1251;72866;-73
2022/04/03 07:46:04;;;;;;;15.70;11.10;;;;;;;3.01;82.15;99907.95;107198;1250;71307;-75
2022/04/03 07:48:33;;;;;;;16.80;11.30;;;;;;;2.97;82.30;99912.78;107428;1251;73622;-76
2022/04/03 07:51:01;;;;;;;16.30;11.70;;;;;;;3.00;82.11;99910.21;107548;1251;61534;-74
2022/04/03 07:53:33;;;;;;;18.40;11.40;;;;;;;2.91;82.34;99916.52;107620;1250;61285;-74
2022/04/03 07:56:05;;;;;;;16.70;11.30;;;;;;;2.95;82.81;99919.80;107643;1250;73537;-74
2022/04/03 07:58:35;;;;;;;13.80;9.80;;;;;;;2.96;83.12;99925.59;107193;1251;74066;-74
2022/04/03 08:01:20;;;;;;;17.40;12.30;;;;;;;2.93;82.77;99926.75;107390;1251;68494;-75
2022/04/03 08:04:02;;;;;;;15.80;10.50;;;;;;;3.03;83.49;99926.57;106956;1252;70149;-75
2022/04/03 08:06:58;;;;;;;18.70;11.50;;;;;;;3.22;82.95;99929.88;107073;1250;63086;-75
2022/04/03 08:09:41;;;;;;;15.10;10.40;;;;;;;3.20;82.11;99930.46;106808;1251;60667;-77
2022/04/03 08:12:57;;;;;;;14.70;11.10;;;;;;;3.26;82.46;99933.77;106917;1251;74367;-77
2022/04/03 08:19:43;;;;;;;16.10;11.10;;;;;;;3.30;81.55;99937.52;106877;1249;72532;-74
2022/04/03 08:22:55;;;;;;;15.30;11.20;;;;;;;3.33;82.48;99930.61;106752;1251;73812;-74
2022/04/03 08:26:27;;;;;;;;;;;;;;;;;;;;;
2022/04/03 08:33:36;;;;;;;15.20;11.30;;;;;;;3.55;80.88;99947.51;107843;1241;72147;-74
2022/04/03 08:36:32;;;;;;;17.10;11.60;;;;;;;3.53;81.07;99934.16;107137;1250;71868;-74
2022/04/03 08:40:00;;;;;;;16.00;11.00;;;;;;;3.44;81.44;99906.42;107296;1248;68851;-75
2022/04/03 08:42:53;;;;;;;17.70;12.40;;;;;;;3.78;80.75;99948.64;107091;1250;73663;-77
2022/04/03 08:46:35;;;;;;;;;;;;;;;;;;;;;
2022/04/03 08:49:52;;;;;;;;;;;;;;;;;;;;;
2022/04/03 08:53:10;;;;;;;15.80;10.30;;;;;;;3.80;78.53;99956.64;107275;1251;72576;-75
2022/04/03 08:56:00;;;;;;;17.50;10.90;;;;;;;3.71;79.12;99950.39;107065;1251;71843;-77
2022/04/03 08:59:19;;;;;;;16.10;11.40;;;;;;;3.82;80.20;99961.31;107171;1250;68221;-75
2022/04/03 09:02:37;;;;;;;17.80;11.90;;;;;;;3.67;79.91;99937.69;107145;1250;72404;-75
2022/04/03 09:06:45;;;;;;;;;;;;;;;;;;;;;
2022/04/03 09:11:04;;;;;;;14.60;10.10;;;;;;;3.72;79.86;99961.19;107250;1249;62880;-73
2022/04/03 09:14:00;;;;;;;12.00;8.20;;;;;;;3.96;80.69;99956.52;107378;1250;74194;-75
2022/04/03 09:17:52;;;;;;;;;;;;;;;;;;;;;
2022/04/03 09:21:34;;;;;;;13.50;9.40;;;;;;;4.26;79.07;99962.77;106889;1252;70160;-74
2022/04/03 09:26:13;;;;;;;;;;;;;;;;;;;;;
2022/04/03 09:29:34;;;;;;;9.60;7.80;;;;;;;4.44;76.07;99968.56;106261;1261;60513;-76
2022/04/03 09:32:03;;;;;;;9.50;7.00;;;;;;;4.35;76.47;99967.09;106520;1257;59611;-73
2022/04/03 09:34:33;;;;;;;12.30;9.20;;;;;;;4.43;75.26;99968.98;106830;1253;74241;-74
2022/04/03 09:37:06;;;;;;;12.30;7.80;;;;;;;4.23;75.82;99967.56;107146;1250;72307;-75
2022/04/03 09:39:35;;;;;;;12.90;9.50;;;;;;;4.37;75.70;99970.41;107246;1250;69503;-75
2022/04/03 09:42:12;;;;;;;12.60;9.30;;;;;;;4.41;76.40;99971.35;107299;1250;73082;-73
2022/04/03 09:44:49;;;;;;;13.70;10.00;;;;;;;4.38;76.29;99975.14;107400;1250;61199;-75
2022/04/03 09:47:30;;;;;;;13.90;10.10;;;;;;;4.49;75.97;99981.55;107313;1250;61346;-76
2022/04/03 09:50:01;;;;;;;11.70;8.60;;;;;;;4.52;75.52;99981.36;107300;1250;74087;-75
2022/04/03 09:52:51;;;;;;;10.60;7.80;;;;;;;4.32;75.41;99979.81;107535;1250;73068;-78
2022/04/03 09:55:28;;;;;;;12.10;8.90;;;;;;;4.37;75.68;99981.95;107496;1250;70989;-75
2022/04/03 09:58:06;;;;;;;10.80;7.80;;;;;;;4.35;76.09;99987.73;107687;1249;71186;-74
2022/04/03 10:00:50;;;;;;;10.20;7.90;;;;;;;4.40;75.85;99988.99;107526;1250;61342;-74
2022/04/03 10:03:19;;;;;;;9.00;7.30;;;;;;;4.48;75.16;99980.61;107562;1250;62223;-75
2022/04/03 10:05:50;;;;;;;11.40;8.50;;;;;;;4.48;74.50;99983.20;107788;1248;74355;-77
2022/04/03 10:08:20;;;;;;;9.90;7.30;;;;;;;4.49;74.74;99982.74;107394;1249;72507;-76
2022/04/03 10:10:51;;;;;;;12.20;8.90;;;;;;;4.44;75.07;99987.52;107563;1250;67998;-75
2022/04/03 10:13:20;;;;;;;10.00;7.60;;;;;;;4.48;75.24;99984.20;107572;1250;73143;-74
2022/04/03 10:15:51;;;;;;;11.40;8.90;;;;;;;4.61;74.03;99985.38;107619;1250;61877;-74
2022/04/03 10:18:20;;;;;;;12.40;9.30;;;;;;;4.73;73.40;99987.41;107529;1251;61329;-75
2022/04/03 10:20:49;;;;;;;12.90;8.80;;;;;;;4.87;73.56;99984.48;107442;1251;72622;-75
2022/04/03 10:23:22;;;;;;;12.80;9.60;;;;;;;5.05;72.61;99984.46;107504;1250;69621;-75
2022/04/03 10:25:55;;;;;;;10.80;9.00;;;;;;;5.15;72.46;99988.83;107325;1250;71648;-75
2022/04/03 10:28:25;;;;;;;11.00;7.60;;;;;;;5.20;69.84;99987.33;107457;1250;73965;-74
2022/04/03 10:31:07;;;;;;;10.50;8.70;;;;;;;5.09;70.34;99989.38;107484;1250;63440;-76
2022/04/03 10:33:42;;;;;;;14.10;10.20;;;;;;;5.24;71.09;99989.52;107476;1250;59309;-77
2022/04/03 10:36:13;;;;;;;11.90;9.60;;;;;;;5.21;69.67;99987.05;107522;1250;72637;-75
2022/04/03 10:39:01;;;;;;;11.50;8.90;;;;;;;5.25;71.00;99991.17;107618;1250;71501;-77
2022/04/03 10:41:34;;;;;;;12.80;9.70;;;;;;;5.22;70.78;99988.79;107330;1250;72033;-74
2022/04/03 10:44:22;;;;;;;12.20;9.20;;;;;;;5.19;70.45;99989.80;107494;1250;73692;-74
2022/04/03 10:47:03;;;;;;;14.30;10.70;;;;;;;5.22;69.61;99993.09;107605;1250;61898;-75
2022/04/03 10:49:40;;;;;;;12.10;10.30;;;;;;;5.47;70.77;99997.21;107452;1250;59566;-75
2022/04/03 10:52:25;;;;;;;12.20;8.70;;;;;;;5.56;68.82;99994.77;107574;1248;73807;-74
2022/04/03 10:54:57;;;;;;;12.70;9.70;;;;;;;5.57;68.40;99988.46;107326;1251;70289;-76
2022/04/03 10:57:46;;;;;;;12.20;9.20;;;;;;;5.55;68.87;99988.44;107354;1250;69348;-76
2022/04/03 11:00:15;;;;;;;11.80;8.80;;;;;;;5.61;68.63;99996.18;107394;1250;72901;-76
2022/04/03 11:02:59;;;;;;;10.60;8.20;;;;;;;5.63;67.98;99989.48;107575;1250;59755;-75
2022/04/03 11:05:47;;;;;;;8.00;6.80;;;;;;;5.66;67.74;99992.04;107538;1250;59849;-76
2022/04/03 11:08:18;;;;;;;9.40;6.80;;;;;;;5.59;65.81;99990.06;107313;1251;74219;-75
2022/04/03 11:11:10;;;;;;;9.40;7.40;;;;;;;5.46;65.52;100001.10;107428;1251;72107;-76
2022/04/03 11:13:40;;;;;;;7.50;6.60;;;;;;;5.34;65.81;99998.52;107357;1251;69320;-75
2022/04/03 11:16:12;;;;;;;9.80;7.30;;;;;;;5.44;65.65;100006.92;107403;1251;71855;-77
2022/04/03 11:18:50;;;;;;;9.10;7.40;;;;;;;5.44;66.13;100003.77;107283;1251;59657;-75
2022/04/03 11:21:22;;;;;;;7.50;6.70;;;;;;;5.58;66.91;100005.70;107332;1251;61979;-76
2022/04/03 11:24:14;;;;;;;8.80;7.70;;;;;;;5.71;65.58;100001.20;107526;1250;74123;-76
2022/04/03 11:26:43;;;;;;;10.00;7.30;;;;;;;5.57;65.57;100005.36;107373;1250;71753;-78
2022/04/03 11:29:14;;;;;;;10.10;7.10;;;;;;;5.57;65.81;100007.83;107206;1250;71012;-77
2022/04/03 11:31:45;;;;;;;9.20;7.60;;;;;;;5.64;64.75;100012.39;107217;1251;74498;-76
2022/04/03 11:34:37;;;;;;;9.60;7.70;;;;;;;5.64;64.39;100010.11;107006;1251;60020;-76
2022/04/03 11:37:51;;;;;;;9.70;7.50;;;;;;;5.63;64.55;100013.31;107334;1251;59945;-76
2022/04/03 11:41:14;;;;;;;10.00;8.10;;;;;;;5.68;63.84;100014.06;107212;1250;73364;-78
2022/04/03 11:44:20;;;;;;;8.30;6.90;;;;;;;5.61;63.53;100014.14;106959;1250;72696;-77
2022/04/03 11:47:50;;;;;;;10.30;7.50;;;;;;;5.52;63.85;100023.48;107172;1251;69551;-75
2022/04/03 11:50:20;;;;;;;10.60;8.30;;;;;;;5.45;63.66;100024.83;107300;1251;70212;-76
2022/04/03 11:52:49;;;;;;;9.90;8.20;;;;;;;5.34;64.55;100024.99;107310;1250;61384;-76
2022/04/03 11:55:19;;;;;;;12.40;7.70;;;;;;;5.46;65.05;100024.73;107378;1250;61219;-78
2022/04/03 11:57:53;;;;;;;13.50;9.70;;;;;;;5.50;65.00;100028.13;107261;1251;76859;-76
2022/04/03 12:00:23;;;;;;;11.30;8.90;;;;;;;5.63;65.22;100022.98;107247;1251;71410;-77
2022/04/03 12:02:58;;;;;;;9.70;8.40;;;;;;;5.62;65.11;100027.73;107335;1251;70005;-76
2022/04/03 12:05:27;;;;;;;9.60;8.10;;;;;;;5.58;65.23;100030.05;107440;1250;71743;-76
2022/04/03 12:08:01;;;;;;;9.60;7.70;;;;;;;5.58;64.09;100038.29;107463;1251;59495;-74
2022/04/03 12:10:33;;;;;;;8.30;6.80;;;;;;;5.49;63.97;100047.36;107499;1251;61173;-79
2022/04/03 12:13:05;;;;;;;9.90;7.10;;;;;;;5.43;64.46;100046.85;107940;1250;73617;-78
2022/04/03 12:15:37;;;;;;;9.70;7.60;;;;;;;5.41;65.23;100048.15;107815;1250;74013;-76